• Join FlightAware (Why Join?)
  • Login
  • US Flag 
09:02PM EDT


 

Airport Tracker/Info


-or-


 

Live Flight TrackerFlight Track Log ✈ USC105 ✈ 26-Apr-2013 ✈ KDPA - KYIP

Flight Track Log - Related Links

Times and Time Zones

All times are in EDT time to prevent confusion due to time zone crossing. See the USC105 flight status page for this flight to view local times or setup timezone preferences in your user account.

Time Position Orientation Groundspeed Altitude Reporting Facility
EDT Latitude Longitude Course Direction KTS MPH feet Rate Location/Type
05:14AM 41.8667 -88.2667 180° South 88 101 2,600  Level Chicago TRACON
05:15AM 41.8500 -88.2667 180° South 107 123 3,700 900 Climbing Chicago TRACON
05:16AM 41.8317 -88.2419 135° Southeast 125 144 4,300 840 Climbing Chicago Center
05:17AM 41.8050 -88.2036 133° Southeast 136 157 5,300 900 Climbing Chicago Center
05:18AM 41.7764 -88.1608 132° Southeast 149 171 6,200 720 Climbing Chicago Center
05:19AM 41.7831 -88.0833 83° East 174 200 6,800 300 Climbing Chicago Center
05:20AM 41.7900 -88.0156 82° East 180 207 6,900 60 Climbing Chicago Center
05:21AM 41.8003 -87.9425 79° East 194 223 7,000  Climbing Chicago Center
05:22AM 41.8097 -87.8678 80° East 201 231 6,900  Descending Chicago Center
05:23AM 41.8192 -87.7933 80° East 203 234 7,000  Climbing Chicago Center
05:24AM 41.8286 -87.7200 80° East 201 231 7,000  Level Chicago Center
05:25AM 41.8375 -87.6453 81° East 205 236 7,000 -60 Level Chicago Center
05:26AM 41.8467 -87.5703 81° East 205 236 6,900 -60 Descending Chicago Center
05:27AM 41.8556 -87.4964 81° East 203 234 6,900  Level Chicago Center
05:28AM 41.8644 -87.4217 81° East 204 235 7,000  Climbing Chicago Center
05:29AM 41.8725 -87.3494 81° East 199 229 6,900 -60 Descending Chicago Center
05:30AM 41.8817 -87.2758 80° East 199 229 6,900  Level Chicago Center
05:31AM 41.8892 -87.2008 82° East 201 231 6,900  Level Chicago Center
05:32AM 41.8981 -87.1281 81° East 198 228 6,900  Level Chicago Center
05:33AM 41.9053 -87.0514 83° East 205 236 6,900  Level Chicago Center
05:34AM 41.9147 -86.9772 80° East 203 234 6,900  Level Chicago Center
05:35AM 41.9231 -86.9028 81° East 202 232 6,900  Level Chicago Center
05:36AM 41.9303 -86.8261 83° East 205 236 6,900  Level Chicago Center
05:37AM 41.9386 -86.7503 82° East 205 236 6,900  Level Chicago Center
05:38AM 41.9467 -86.6714 82° East 207 238 6,900  Level Chicago Center
05:39AM 41.9542 -86.5944 83° East 208 239 6,900  Level Chicago Center
05:40AM 41.9622 -86.5189 82° East 205 236 6,900  Level Chicago Center
05:41AM 41.9706 -86.4425 82° East 206 237 6,900  Level Chicago Center
05:42AM 41.9783 -86.3664 82° East 206 237 6,900  Level Chicago Center
05:43AM 41.9875 -86.2906 81° East 206 237 6,900  Level Chicago Center
05:44AM 41.9944 -86.2142 83° East 207 238 6,900  Level Chicago Center
05:45AM 42.0028 -86.1378 82° East 206 237 6,900  Level Chicago Center
05:46AM 42.0108 -86.0611 82° East 206 237 6,900  Level Chicago Center
05:47AM 42.0189 -85.9850 82° East 207 238 6,900  Level Chicago Center
05:48AM 42.0264 -85.9094 82° East 205 236 6,900  Level Chicago Center
05:49AM 42.0347 -85.8336 82° East 205 236 6,900  Level Chicago Center
05:50AM 42.0419 -85.7564 83° East 207 238 6,900  Level Chicago Center
05:51AM 42.0511 -85.6653 82° East 206 237 6,900  Level Chicago Center
05:52AM 42.0578 -85.5883 83° East 206 237 6,900  Level Chicago Center
05:53AM 42.0658 -85.5119 82° East 207 238 6,900  Level Chicago Center
05:54AM 42.0736 -85.4350 82° East 207 238 6,900  Level Chicago Center
05:55AM 42.0808 -85.3586 83° East 206 237 6,900  Level Chicago Center
05:56AM 42.0875 -85.2828 83° East 205 236 6,900  Level Chicago Center
05:57AM 42.0953 -85.2067 82° East 204 235 6,900  Level Chicago Center
05:58AM 42.1017 -85.1300 84° East 206 237 6,900  Level Chicago Center
05:59AM 42.1097 -85.0544 82° East 204 235 6,900  Level Chicago Center
06:00AM 42.1161 -84.9781 84° East 204 235 6,900  Level Chicago Center
06:02AM 42.1294 -84.8264 83° East 204 235 6,900  Level Chicago Center
06:03AM 42.1369 -84.7503 82° East 205 236 6,900  Level Chicago Center
06:04AM 42.1439 -84.6744 83° East 204 235 6,900  Level Chicago Center
06:05AM 42.1500 -84.5992 84° East 203 234 6,900 60 Level Chicago Center
06:06AM 42.1514 -84.5692 86° East 204 235 7,000 -240 Climbing Cleveland Center
06:07AM 42.1583 -84.4825 84° East 211 243 6,600 -540 Descending Cleveland Center
06:08AM 42.1672 -84.4075 81° East 217 250 6,000 -720 Descending Cleveland Center
06:09AM 42.1722 -84.3153 86° East 206 237 5,200 -540 Descending Cleveland Center
06:10AM 42.1803 -84.2597 79° East 201 231 5,000 -120 Descending Cleveland Center
06:11AM 42.1847 -84.1900 85° East 187 215 5,000  Level Cleveland Center
06:12AM 42.1911 -84.1203 83° East 187 215 5,000  Level Cleveland Center
06:13AM 42.1978 -84.0392 84° East 185 213 5,000  Level Cleveland Center
06:14AM 42.2036 -83.9833 82° East 182 209 5,000 -360 Level Cleveland Center
06:15AM 42.2100 -83.9081 83° East 190 219 4,400 -720 Descending Cleveland Center
06:16AM 42.2247 -83.8247 77° East 202 232 3,500 -720 Descending Cleveland Center
06:17AM 42.2414 -83.7556 72° East 192 221 3,000 -300 Descending Cleveland Center
06:18AM 42.2392 -83.6853 92° East 178 205 3,000 -360 Level Cleveland Center
06:19AM 42.2406 -83.6292 88° East 146 168 2,300 -840 Descending Cleveland Center
06:20AM 42.2419 -83.5758 88° East 139 160 1,400 -900 Descending Cleveland Center
06:22AM 42.2393 -83.5310 90° East  Level Estimated
06:29AM 42.2393 -83.5310 90° East  Level Estimated
06:30AM 42.2393 -83.5310 90° East  Level Estimated